Time;durP1;ratioP1;P1;durP2;ratioP2;P2;SDS_P1;SDS_P2;PMS_P1;PMS_P2;Temp;Humidity;BMP_temperature;BMP_pressure;BME280_temperature;BME280_humidity;BME280_pressure;Samples;Min_cycle;Max_cycle;Signal;HPM_P1;HPM_P2
2022/11/05 00:11:13;;;;;;;;;;;;;;;;;;5078420;28;1239;-78
2022/11/05 00:19:17;;;;;;;;;;;;;;;;;;5077612;28;1423;-77
2022/11/05 00:27:10;;;;;;;;;;;;;;;;;;5094906;28;829;-78
2022/11/05 00:29:36;;;;;;;;;;;;;;;;;;5097793;28;885;-78
2022/11/05 00:32:01;;;;;;;;;;;;;;;;;;5088734;28;1126;-78
2022/11/05 00:34:26;;;;;;;;;;;;;;;;;;5076265;28;1185;-77
2022/11/05 00:36:52;;;;;;;;;;;;;;;;;;5059552;28;1206;-78
2022/11/05 00:39:17;;;;;;;;;;;;;;;;;;5078147;28;971;-78
2022/11/05 00:41:42;;;;;;;;;;;;;;;;;;5077511;28;1918;-78
2022/11/05 00:49:28;;;;;;;;;;;;;;;;;;5073708;28;770;-78
2022/11/05 00:49:37;;;;;;;;;;;;;;;;;;5075097;28;757;-78
2022/11/05 00:54:46;;;;;;;;;;;;;;;;;;5074272;28;729;-78
2022/11/05 00:57:11;;;;;;;;;;;;;;;;;;5075232;28;809;-78
2022/11/05 00:59:36;;;;;;;;;;;;;;;;;;5073529;28;908;-78
2022/11/05 01:02:02;;;;;;;;;;;;;;;;;;5073764;28;1967;-78
2022/11/05 01:04:27;;;;;;;;;;;;;;;;;;5057196;28;1170;-78
2022/11/05 01:06:52;;;;;;;;;;;;;;;;;;5075485;28;1190;-77
2022/11/05 01:09:17;;;;;;;;;;;;;;;;;;5076453;28;931;-77
2022/11/05 01:11:44;;;;;;;;;;;;;;;;;;5075340;28;892;-78
2022/11/05 01:14:11;;;;;;;;;;;;;;;;;;5073558;28;840;-77
2022/11/05 01:16:37;;;;;;;;;;;;;;;;;;5074366;28;1038;-78
2022/11/05 01:19:03;;;;;;;;;;;;;;;;;;5073173;28;1286;-77
2022/11/05 01:21:29;;;;;;;;;;;;;;;;;;5073076;28;1898;-78
2022/11/05 01:23:54;;;;;;;;;;;;;;;;;;5055658;28;1222;-78
2022/11/05 01:26:19;;;;;;;;;;;;;;;;;;5072404;28;1206;-78
2022/11/05 01:28:49;;;;;;;;;;;;;;;;;;5074107;28;855;-78
2022/11/05 01:31:14;;;;;;;;;;;;;;;;;;5073846;28;896;-78
2022/11/05 01:33:39;;;;;;;;;;;;;;;;;;5056632;28;1206;-78
2022/11/05 01:36:05;;;;;;;;;;;;;;;;;;5072945;28;1175;-78
2022/11/05 01:38:30;;;;;;;;;;;;;;;;;;5055765;28;1274;-78
2022/11/05 01:40:55;;;;;;;;;;;;;;;;;;5072293;28;1895;-78
2022/11/05 01:43:22;;;;;;;;;;;;;;;;;;5073412;28;991;-78
2022/11/05 01:45:52;;;;;;;;;;;;;;;;;;5072696;28;1297;-78
2022/11/05 01:48:18;;;;;;;;;;;;;;;;;;5073596;28;991;-78
2022/11/05 01:50:54;;;;;;;;;;;;;;;;;;5073746;28;894;-78
2022/11/05 01:53:28;;;;;;;;;;;;;;;;;;5073396;28;903;-78
2022/11/05 01:55:57;;;;;;;;;;;;;;;;;;5073565;28;885;-78
2022/11/05 01:58:25;;;;;;;;;;;;;;;;;;5071854;28;1178;-78
2022/11/05 02:00:50;;;;;;;;;;;;;;;;;;5073715;28;1902;-78
2022/11/05 02:03:16;;;;;;;;;;;;;;;;;;5072653;28;915;-78
2022/11/05 02:05:43;;;;;;;;;;;;;;;;;;5072677;28;852;-78
2022/11/05 02:08:12;;;;;;;;;;;;;;;;;;5072777;28;836;-78
2022/11/05 02:10:38;;;;;;;;;;;;;;;;;;5071542;28;1210;-78
2022/11/05 02:13:04;;;;;;;;;;;;;;;;;;5071334;28;1241;-78
2022/11/05 02:15:39;;;;;;;;;;;;;;;;;;5054378;28;1458;-78
2022/11/05 02:18:15;;;;;;;;;;;;;;;;;;5071926;28;1625;-78
2022/11/05 02:20:44;;;;;;;;;;;;;;;;;;5072618;28;1906;-78
2022/11/05 02:23:28;;;;;;;;;;;;;;;;;;5070015;28;1294;-78
2022/11/05 02:26:13;;;;;;;;;;;;;;;;;;5071832;28;1370;-78
2022/11/05 02:28:45;;;;;;;;;;;;;;;;;;5070930;28;1253;-78
2022/11/05 02:31:27;;;;;;;;;;;;;;;;;;5072024;28;1155;-78
2022/11/05 02:33:55;;;;;;;;;;;;;;;;;;5071252;28;1302;-78
2022/11/05 02:36:26;;;;;;;;;;;;;;;;;;5072514;28;861;-78
2022/11/05 02:38:59;;;;;;;;;;;;;;;;;;5071669;28;1159;-78
2022/11/05 02:41:42;;;;;;;;;;;;;;;;;;5072253;28;1906;-78
2022/11/05 02:44:16;;;;;;;;;;;;;;;;;;5072771;28;987;-78
2022/11/05 02:46:53;;;;;;;;;;;;;;;;;;5071668;28;1068;-77
2022/11/05 02:49:57;;;;;;;;;;;;;;;;;;5071246;28;1266;-77
2022/11/05 02:52:32;;;;;;;;;;;;;;;;;;5050612;28;1123;-77
2022/11/05 02:55:01;;;;;;;;;;;;;;;;;;5067277;28;1203;-77
2022/11/05 02:57:27;;;;;;;;;;;;;;;;;;5053023;28;1283;-78
2022/11/05 03:00:05;;;;;;;;;;;;;;;;;;5073130;28;865;-78
2022/11/05 03:02:31;;;;;;;;;;;;;;;;;;5073177;28;1910;-78
2022/11/05 03:04:57;;;;;;;;;;;;;;;;;;5071115;28;1293;-78
2022/11/05 03:07:44;;;;;;;;;;;;;;;;;;5053750;28;1309;-77
2022/11/05 03:10:21;;;;;;;;;;;;;;;;;;5071514;28;1205;-78
2022/11/05 03:12:56;;;;;;;;;;;;;;;;;;5071567;28;1172;-78
2022/11/05 03:15:21;;;;;;;;;;;;;;;;;;5072591;28;904;-78
2022/11/05 03:17:55;;;;;;;;;;;;;;;;;;5072648;28;852;-78
2022/11/05 03:20:24;;;;;;;;;;;;;;;;;;5073135;28;1964;-78
2022/11/05 03:22:57;;;;;;;;;;;;;;;;;;5072056;28;1220;-78
2022/11/05 03:25:24;;;;;;;;;;;;;;;;;;5070589;28;1166;-78
2022/11/05 03:27:53;;;;;;;;;;;;;;;;;;5072791;28;974;-78
2022/11/05 03:30:18;;;;;;;;;;;;;;;;;;5072889;28;947;-78
2022/11/05 03:32:55;;;;;;;;;;;;;;;;;;5072498;28;880;-77
2022/11/05 03:35:47;;;;;;;;;;;;;;;;;;5073470;28;1272;-78
2022/11/05 03:38:15;;;;;;;;;;;;;;;;;;5071885;28;1298;-78
2022/11/05 03:40:41;;;;;;;;;;;;;;;;;;5074137;28;1906;-78
2022/11/05 03:43:07;;;;;;;;;;;;;;;;;;5074147;28;1178;-78
2022/11/05 03:45:46;;;;;;;;;;;;;;;;;;5075631;28;1042;-78
2022/11/05 03:48:14;;;;;;;;;;;;;;;;;;5074767;28;1415;-78
2022/11/05 03:50:44;;;;;;;;;;;;;;;;;;5074303;28;1142;-78
2022/11/05 03:53:17;;;;;;;;;;;;;;;;;;5074290;28;1343;-78
2022/11/05 03:55:56;;;;;;;;;;;;;;;;;;5074230;28;1197;-78
2022/11/05 03:58:22;;;;;;;;;;;;;;;;;;5074382;28;1159;-78
2022/11/05 04:00:49;;;;;;;;;;;;;;;;;;5058105;28;1913;-78
2022/11/05 04:03:35;;;;;;;;;;;;;;;;;;5074746;28;833;-78
2022/11/05 04:14:13;;;;;;;;;;;;;;;;;;5075675;28;673;-78
2022/11/05 04:24:51;;;;;;;;;;;;;;;;;;5074637;28;1104;-78
2022/11/05 04:27:17;;;;;;;;;;;;;;;;;;5057522;28;1250;-77
2022/11/05 04:32:26;;;;;;;;;;;;;;;;;;5073489;28;693;-77
2022/11/05 04:34:51;;;;;;;;;;;;;;;;;;5073069;28;1141;-77
2022/11/05 04:37:16;;;;;;;;;;;;;;;;;;5056029;28;1281;-75
2022/11/05 04:39:42;;;;;;;;;;;;;;;;;;5073573;28;864;-78
2022/11/05 04:42:08;;;;;;;;;;;;;;;;;;5072553;28;1905;-78
2022/11/05 04:44:34;;;;;;;;;;;;;;;;;;5072244;28;1207;-76
2022/11/05 04:46:59;;;;;;;;;;;;;;;;;;5055616;28;1222;-76
2022/11/05 04:49:24;;;;;;;;;;;;;;;;;;5074263;28;927;-77
2022/11/05 04:51:49;;;;;;;;;;;;;;;;;;5073173;28;1069;-77
2022/11/05 04:54:15;;;;;;;;;;;;;;;;;;5056347;28;1259;-77
2022/11/05 04:56:40;;;;;;;;;;;;;;;;;;5073725;28;1264;-77
2022/11/05 04:59:05;;;;;;;;;;;;;;;;;;5074524;28;1053;-77
2022/11/05 05:01:31;;;;;;;;;;;;;;;;;;5073037;28;1899;-77
2022/11/05 05:03:56;;;;;;;;;;;;;;;;;;5072365;28;1237;-77
2022/11/05 05:06:21;;;;;;;;;;;;;;;;;;5072395;28;940;-76
2022/11/05 05:08:47;;;;;;;;;;;;;;;;;;5072073;28;1190;-76
2022/11/05 05:11:14;;;;;;;;;;;;;;;;;;5072071;28;1167;-77
2022/11/05 05:13:39;;;;;;;;;;;;;;;;;;5071767;28;1249;-77
2022/11/05 05:16:10;;;;;;;;;;;;;;;;;;5072549;28;900;-77
2022/11/05 05:18:35;;;;;;;;;;;;;;;;;;5071370;28;1303;-77
2022/11/05 05:23:48;;;;;;;;;;;;;;;;;;5072082;28;1088;-77
2022/11/05 05:26:14;;;;;;;;;;;;;;;;;;5071898;28;857;-78
2022/11/05 05:28:39;;;;;;;;;;;;;;;;;;5071266;28;1265;-77
2022/11/05 05:31:04;;;;;;;;;;;;;;;;;;5072323;28;1151;-77
2022/11/05 05:33:29;;;;;;;;;;;;;;;;;;5072424;28;1119;-77
2022/11/05 05:35:58;;;;;;;;;;;;;;;;;;5073996;28;885;-78
2022/11/05 05:38:24;;;;;;;;;;;;;;;;;;5076035;28;881;-77
2022/11/05 05:40:50;;;;;;;;;;;;;;;;;;5075467;28;1969;-78
2022/11/05 05:43:15;;;;;;;;;;;;;;;;;;5076615;28;936;-77
2022/11/05 05:45:40;;;;;;;;;;;;;;;;;;5077208;28;856;-77
2022/11/05 05:48:05;;;;;;;;;;;;;;;;;;5058785;28;1334;-78
2022/11/05 05:50:31;;;;;;;;;;;;;;;;;;5058909;28;1218;-76
2022/11/05 05:52:56;;;;;;;;;;;;;;;;;;5075596;28;903;-77
2022/11/05 05:55:21;;;;;;;;;;;;;;;;;;5075844;28;888;-77
2022/11/05 05:57:47;;;;;;;;;;;;;;;;;;5074944;28;1214;-78
2022/11/05 06:00:12;;;;;;;;;;;;;;;;;;5076068;28;833;-77
2022/11/05 06:02:38;;;;;;;;;;;;;;;;;;5076386;28;1969;-77
2022/11/05 06:05:03;;;;;;;;;;;;;;;;;;5058637;28;1139;-77
2022/11/05 06:07:28;;;;;;;;;;;;;;;;;;5075575;28;1146;-78
2022/11/05 06:09:54;;;;;;;;;;;;;;;;;;5075044;28;1332;-77
2022/11/05 06:12:19;;;;;;;;;;;;;;;;;;5075441;28;935;-77
2022/11/05 06:14:44;;;;;;;;;;;;;;;;;;5075483;28;919;-77
2022/11/05 06:17:09;;;;;;;;;;;;;;;;;;5077122;28;895;-77
2022/11/05 06:19:35;;;;;;;;;;;;;;;;;;5075650;28;1050;-78
2022/11/05 06:22:00;;;;;;;;;;;;;;;;;;5075942;28;1948;-78
2022/11/05 06:24:25;;;;;;;;;;;;;;;;;;5058814;28;1274;-78
2022/11/05 06:26:50;;;;;;;;;;;;;;;;;;5087064;28;1254;-78
2022/11/05 06:29:16;;;;;;;;;;;;;;;;;;5087756;28;859;-77
2022/11/05 06:31:41;;;;;;;;;;;;;;;;;;5086777;28;1044;-78
2022/11/05 06:34:06;;;;;;;;;;;;;;;;;;5086853;28;1007;-78
2022/11/05 06:36:32;;;;;;;;;;;;;;;;;;5086204;28;869;-78
2022/11/05 06:38:57;;;;;;;;;;;;;;;;;;5084720;28;829;-78
2022/11/05 06:41:22;;;;;;;;;;;;;;;;;;5087070;28;1973;-78
2022/11/05 06:43:48;;;;;;;;;;;;;;;;;;5074387;28;1182;-77
2022/11/05 06:46:13;;;;;;;;;;;;;;;;;;5073714;28;1158;-78
2022/11/05 06:48:39;;;;;;;;;;;;;;;;;;5091064;28;1358;-77
2022/11/05 06:51:05;;;;;;;;;;;;;;;;;;5098007;28;1259;-77
2022/11/05 06:53:31;;;;;;;;;;;;;;;;;;5095654;28;1300;-77
2022/11/05 06:55:56;;;;;;;;;;;;;;;;;;5102624;28;1148;-77
2022/11/05 06:58:21;;;;;;;;;;;;;;;;;;5106295;28;1276;-77
2022/11/05 07:00:47;;;;;;;;;;;;;;;;;;5086805;28;1976;-76
2022/11/05 07:03:13;;;;;;;;;;;;;;;;;;5087736;28;1297;-77
2022/11/05 07:05:40;;;;;;;;;;;;;;;;;;5074622;28;1245;-77
2022/11/05 07:08:05;;;;;;;;;;;;;;;;;;5096612;28;888;-77
2022/11/05 07:10:30;;;;;;;;;;;;;;;;;;5080105;28;1258;-77
2022/11/05 07:12:56;;;;;;;;;;;;;;;;;;5098931;28;1355;-77
2022/11/05 07:15:21;;;;;;;;;;;;;;;;;;5100152;28;914;-77
2022/11/05 07:17:46;;;;;;;;;;;;;;;;;;5081933;28;1189;-77
2022/11/05 07:20:12;;;;;;;;;;;;;;;;;;5098196;28;1305;-77
2022/11/05 07:22:37;;;;;;;;;;;;;;;;;;5099697;28;1905;-77
2022/11/05 07:25:04;;;;;;;;;;;;;;;;;;5100119;28;1219;-77
2022/11/05 07:27:29;;;;;;;;;;;;;;;;;;5098917;28;1181;-77
2022/11/05 07:29:54;;;;;;;;;;;;;;;;;;5085399;28;1190;-77
2022/11/05 07:32:21;;;;;;;;;;;;;;;;;;5102325;28;1114;-77
2022/11/05 07:34:46;;;;;;;;;;;;;;;;;;5116178;28;1303;-79
2022/11/05 07:37:12;;;;;;;;;;;;;;;;;;5096819;28;1003;-78
2022/11/05 07:39:37;;;;;;;;;;;;;;;;;;5082291;28;1294;-81
2022/11/05 07:42:03;;;;;;;;;;;;;;;;;;5082240;28;1973;-81
2022/11/05 07:44:28;;;;;;;;;;;;;;;;;;5082067;28;1277;-81
2022/11/05 07:46:53;;;;;;;;;;;;;;;;;;5082854;28;1230;-79
2022/11/05 07:49:18;;;;;;;;;;;;;;;;;;5098745;28;1134;-79
2022/11/05 07:51:47;;;;;;;;;;;;;;;;;;5099563;28;805;-79
2022/11/05 07:54:12;;;;;;;;;;;;;;;;;;5083225;28;1325;-80
2022/11/05 07:56:37;;;;;;;;;;;;;;;;;;5099016;28;1145;-79
2022/11/05 07:59:03;;;;;;;;;;;;;;;;;;5101028;28;816;-79
2022/11/05 08:01:28;;;;;;;;;;;;;;;;;;5091728;28;1957;-79
2022/11/05 08:03:53;;;;;;;;;;;;;;;;;;5118273;28;1152;-79
2022/11/05 08:06:22;;;;;;;;;;;;;;;;;;5118808;28;1213;-79
2022/11/05 08:08:47;;;;;;;;;;;;;;;;;;5118228;28;919;-79
2022/11/05 08:11:13;;;;;;;;;;;;;;;;;;5107851;28;990;-79
2022/11/05 08:13:41;;;;;;;;;;;;;;;;;;5098553;28;1152;-79
2022/11/05 08:16:07;;;;;;;;;;;;;;;;;;5082477;28;1178;-79
2022/11/05 08:18:32;;;;;;;;;;;;;;;;;;5099184;28;906;-79
2022/11/05 08:20:59;;;;;;;;;;;;;;;;;;5097858;28;1964;-79
2022/11/05 08:23:25;;;;;;;;;;;;;;;;;;5098079;28;1272;-79
2022/11/05 08:25:51;;;;;;;;;;;;;;;;;;5099878;28;903;-79
2022/11/05 08:28:16;;;;;;;;;;;;;;;;;;5099717;28;1022;-79
2022/11/05 08:30:42;;;;;;;;;;;;;;;;;;5098202;28;1127;-79
2022/11/05 08:33:08;;;;;;;;;;;;;;;;;;5080982;28;1322;-79
2022/11/05 08:35:34;;;;;;;;;;;;;;;;;;5098873;28;1193;-79
2022/11/05 08:38:01;;;;;;;;;;;;;;;;;;5097861;28;1170;-80
2022/11/05 08:40:28;;;;;;;;;;;;;;;;;;5098887;28;1185;-79
2022/11/05 08:42:55;;;;;;;;;;;;;;;;;;5101468;28;1909;-82
2022/11/05 08:45:20;;;;;;;;;;;;;;;;;;5099515;28;1027;-80
2022/11/05 08:47:46;;;;;;;;;;;;;;;;;;5098711;28;1305;-80
2022/11/05 08:50:11;;;;;;;;;;;;;;;;;;5098568;28;1185;-80
2022/11/05 08:52:38;;;;;;;;;;;;;;;;;;5098761;28;974;-82
2022/11/05 08:55:05;;;;;;;;;;;;;;;;;;5099810;28;840;-82
2022/11/05 08:57:30;;;;;;;;;;;;;;;;;;5080672;28;1194;-81
2022/11/05 08:59:55;;;;;;;;;;;;;;;;;;5097666;28;938;-81
2022/11/05 09:02:21;;;;;;;;;;;;;;;;;;5098379;28;1947;-81
2022/11/05 09:04:46;;;;;;;;;;;;;;;;;;5097347;28;1210;-81
2022/11/05 09:07:11;;;;;;;;;;;;;;;;;;5097941;28;944;-81
2022/11/05 09:09:36;;;;;;;;;;;;;;;;;;5097739;28;1168;-80
2022/11/05 09:12:02;;;;;;;;;;;;;;;;;;5098759;28;1231;-79
2022/11/05 09:14:28;;;;;;;;;;;;;;;;;;5098212;28;797;-80
2022/11/05 09:16:54;;;;;;;;;;;;;;;;;;5097481;28;852;-83
2022/11/05 09:19:19;;;;;;;;;;;;;;;;;;5097448;28;1284;-81
2022/11/05 09:21:44;;;;;;;;;;;;;;;;;;5096953;28;1910;-82
2022/11/05 09:24:10;;;;;;;;;;;;;;;;;;5081339;28;1302;-82
2022/11/05 09:26:35;;;;;;;;;;;;;;;;;;5107888;28;939;-81
2022/11/05 09:29:01;;;;;;;;;;;;;;;;;;5115033;28;1200;-82
2022/11/05 09:31:26;;;;;;;;;;;;;;;;;;5098632;28;1336;-81
2022/11/05 09:33:52;;;;;;;;;;;;;;;;;;5097297;28;1336;-81
2022/11/05 09:36:17;;;;;;;;;;;;;;;;;;5096695;28;1318;-81
2022/11/05 09:38:42;;;;;;;;;;;;;;;;;;5099009;28;845;-81
2022/11/05 09:41:13;;;;;;;;;;;;;;;;;;5100460;28;1918;-81
2022/11/05 09:43:42;;;;;;;;;;;;;;;;;;5101140;28;1197;-83
2022/11/05 09:46:13;;;;;;;;;;;;;;;;;;5102811;28;1528;-82
2022/11/05 09:48:40;;;;;;;;;;;;;;;;;;5097485;28;1294;-82
2022/11/05 09:51:05;;;;;;;;;;;;;;;;;;5097213;28;986;-82
2022/11/05 09:53:31;;;;;;;;;;;;;;;;;;5096588;28;1300;-82
2022/11/05 09:55:57;;;;;;;;;;;;;;;;;;5097515;28;1184;-82
2022/11/05 09:58:38;;;;;;;;;;;;;;;;;;5096669;28;1292;-82
2022/11/05 10:01:05;;;;;;;;;;;;;;;;;;5096455;28;1914;-82
2022/11/05 10:03:32;;;;;;;;;;;;;;;;;;5095355;28;1277;-82
2022/11/05 10:06:02;;;;;;;;;;;;;;;;;;5095922;28;1174;-82
2022/11/05 10:08:31;;;;;;;;;;;;;;;;;;5096232;28;1217;-82
2022/11/05 10:11:06;;;;;;;;;;;;;;;;;;5097711;28;966;-82
2022/11/05 10:13:31;;;;;;;;;;;;;;;;;;5096939;28;1281;-82
2022/11/05 10:15:59;;;;;;;;;;;;;;;;;;5097049;28;1281;-83
2022/11/05 10:18:29;;;;;;;;;;;;;;;;;;5096135;28;1162;-82
2022/11/05 10:20:54;;;;;;;;;;;;;;;;;;5097463;28;2029;-83
2022/11/05 10:23:21;;;;;;;;;;;;;;;;;;5096876;28;1188;-81
2022/11/05 10:25:47;;;;;;;;;;;;;;;;;;5096342;28;1214;-82
2022/11/05 10:28:23;;;;;;;;;;;;;;;;;;5096941;28;1181;-82
2022/11/05 10:30:50;;;;;;;;;;;;;;;;;;5097425;28;971;-82
2022/11/05 10:33:18;;;;;;;;;;;;;;;;;;5098192;28;950;-82
2022/11/05 10:35:48;;;;;;;;;;;;;;;;;;5096468;28;1223;-82
2022/11/05 10:38:13;;;;;;;;;;;;;;;;;;5097243;28;1284;-82
2022/11/05 10:40:45;;;;;;;;;;;;;;;;;;5097068;28;1909;-82
2022/11/05 10:43:11;;;;;;;;;;;;;;;;;;5099396;28;1161;-82
2022/11/05 10:45:42;;;;;;;;;;;;;;;;;;5099912;28;1010;-82
2022/11/05 10:48:26;;;;;;;;;;;;;;;;;;5099564;28;1388;-82
2022/11/05 10:50:52;;;;;;;;;;;;;;;;;;5098511;28;1409;-82
2022/11/05 10:53:19;;;;;;;;;;;;;;;;;;5082855;28;1282;-82
2022/11/05 10:55:46;;;;;;;;;;;;;;;;;;5095516;28;1115;-82
2022/11/05 10:58:14;;;;;;;;;;;;;;;;;;5096047;28;1198;-82
2022/11/05 11:00:41;;;;;;;;;;;;;;;;;;5105002;28;1932;-82
2022/11/05 11:03:26;;;;;;;;;;;;;;;;;;5107349;28;1100;-82
2022/11/05 11:05:57;;;;;;;;;;;;;;;;;;5111994;28;1301;-81
2022/11/05 11:08:23;;;;;;;;;;;;;;;;;;5104785;28;990;-82
2022/11/05 11:10:50;;;;;;;;;;;;;;;;;;5078742;28;1194;-82
2022/11/05 11:13:20;;;;;;;;;;;;;;;;;;5099381;28;1201;-82
2022/11/05 11:15:45;;;;;;;;;;;;;;;;;;5109646;28;1007;-82
2022/11/05 11:18:31;;;;;;;;;;;;;;;;;;5107127;28;1150;-82
2022/11/05 11:21:04;;;;;;;;;;;;;;;;;;5108855;28;1952;-82
2022/11/05 11:23:35;;;;;;;;;;;;;;;;;;5106379;28;1286;-82
2022/11/05 11:26:00;;;;;;;;;;;;;;;;;;5106104;28;1115;-82
2022/11/05 11:28:46;;;;;;;;;;;;;;;;;;5106376;28;841;-82
2022/11/05 11:31:11;;;;;;;;;;;;;;;;;;5102293;28;1358;-82
2022/11/05 11:33:38;;;;;;;;;;;;;;;;;;5106498;28;1284;-82
2022/11/05 11:36:04;;;;;;;;;;;;;;;;;;5105305;28;1198;-82
2022/11/05 11:38:31;;;;;;;;;;;;;;;;;;5090160;28;1192;-82
2022/11/05 11:41:02;;;;;;;;;;;;;;;;;;5107753;28;1945;-82
2022/11/05 11:43:29;;;;;;;;;;;;;;;;;;5108765;28;1352;-80
2022/11/05 11:45:55;;;;;;;;;;;;;;;;;;5109429;28;918;-80
2022/11/05 11:48:26;;;;;;;;;;;;;;;;;;5109076;28;1159;-80
2022/11/05 11:50:51;;;;;;;;;;;;;;;;;;5106056;28;907;-81
2022/11/05 11:53:20;;;;;;;;;;;;;;;;;;5093561;28;1281;-80
2022/11/05 11:55:59;;;;;;;;;;;;;;;;;;5094214;28;887;-81
2022/11/05 11:58:36;;;;;;;;;;;;;;;;;;5096489;28;1372;-80
2022/11/05 12:01:24;;;;;;;;;;;;;;;;;;5097816;28;1898;-81
2022/11/05 12:03:52;;;;;;;;;;;;;;;;;;5076854;28;1286;-81
2022/11/05 12:06:20;;;;;;;;;;;;;;;;;;5096349;28;1115;-81
2022/11/05 12:09:08;;;;;;;;;;;;;;;;;;5096405;28;1273;-80
2022/11/05 12:11:37;;;;;;;;;;;;;;;;;;5090514;28;1268;-80
2022/11/05 12:14:17;;;;;;;;;;;;;;;;;;5096863;28;1428;-80
2022/11/05 12:16:52;;;;;;;;;;;;;;;;;;5099181;28;1237;-80
2022/11/05 12:19:41;;;;;;;;;;;;;;;;;;5099600;28;1002;-81
2022/11/05 12:22:23;;;;;;;;;;;;;;;;;;5097457;28;1940;-80
2022/11/05 12:25:14;;;;;;;;;;;;;;;;;;5096193;28;1416;-81
2022/11/05 12:27:56;;;;;;;;;;;;;;;;;;5080580;28;1159;-82
2022/11/05 12:30:22;;;;;;;;;;;;;;;;;;5097195;28;919;-80
2022/11/05 12:32:47;;;;;;;;;;;;;;;;;;5096505;28;844;-79
2022/11/05 12:35:31;;;;;;;;;;;;;;;;;;5095558;28;1439;-79
2022/11/05 12:38:23;;;;;;;;;;;;;;;;;;5096213;28;1057;-78
2022/11/05 12:40:59;;;;;;;;;;;;;;;;;;5095233;28;1906;-79
2022/11/05 12:43:40;;;;;;;;;;;;;;;;;;5094747;28;1166;-80
2022/11/05 12:46:05;;;;;;;;;;;;;;;;;;5096190;28;824;-79
2022/11/05 12:48:31;;;;;;;;;;;;;;;;;;5095077;28;1022;-80
2022/11/05 12:51:16;;;;;;;;;;;;;;;;;;5094059;28;1098;-79
2022/11/05 12:54:00;;;;;;;;;;;;;;;;;;5094564;28;1123;-80
2022/11/05 12:56:31;;;;;;;;;;;;;;;;;;5092841;28;1064;-80
2022/11/05 12:59:23;;;;;;;;;;;;;;;;;;5093889;28;1358;-79
2022/11/05 13:01:53;;;;;;;;;;;;;;;;;;5093058;28;1965;-80
2022/11/05 13:04:47;;;;;;;;;;;;;;;;;;5094029;28;955;-80
2022/11/05 13:07:19;;;;;;;;;;;;;;;;;;5083639;28;1292;-80
2022/11/05 13:09:51;;;;;;;;;;;;;;;;;;5094619;28;813;-79
2022/11/05 13:12:19;;;;;;;;;;;;;;;;;;5094439;28;923;-80
2022/11/05 13:14:52;;;;;;;;;;;;;;;;;;5092686;28;1426;-79
2022/11/05 13:17:23;;;;;;;;;;;;;;;;;;5094657;28;977;-80
2022/11/05 13:19:56;;;;;;;;;;;;;;;;;;5093217;28;1119;-80
2022/11/05 13:22:39;;;;;;;;;;;;;;;;;;5094004;28;1878;-80
2022/11/05 13:25:11;;;;;;;;;;;;;;;;;;5094299;28;1257;-80
2022/11/05 13:27:42;;;;;;;;;;;;;;;;;;5092357;28;1195;-80
2022/11/05 13:30:14;;;;;;;;;;;;;;;;;;5092738;28;1388;-80
2022/11/05 13:32:42;;;;;;;;;;;;;;;;;;5092414;28;836;-80
2022/11/05 13:35:14;;;;;;;;;;;;;;;;;;5091894;28;1241;-80
2022/11/05 13:40:41;;;;;;;;;;;;;;;;;;5093720;28;860;-80
2022/11/05 13:43:16;;;;;;;;;;;;;;;;;;5093940;28;793;-80
2022/11/05 13:45:59;;;;;;;;;;;;;;;;;;5093592;28;915;-80
2022/11/05 13:48:25;;;;;;;;;;;;;;;;;;5092464;28;1064;-80
2022/11/05 13:51:08;;;;;;;;;;;;;;;;;;5092322;28;938;-80
2022/11/05 13:53:44;;;;;;;;;;;;;;;;;;5093390;28;1018;-80
2022/11/05 13:56:29;;;;;;;;;;;;;;;;;;5092690;28;1337;-80
2022/11/05 13:58:54;;;;;;;;;;;;;;;;;;5091824;28;1210;-80
2022/11/05 14:01:32;;;;;;;;;;;;;;;;;;5091967;28;1889;-80
2022/11/05 14:03:57;;;;;;;;;;;;;;;;;;5093025;28;1296;-79
2022/11/05 14:06:25;;;;;;;;;;;;;;;;;;5093460;28;1154;-79
2022/11/05 14:08:51;;;;;;;;;;;;;;;;;;5095469;28;1288;-79
2022/11/05 14:11:21;;;;;;;;;;;;;;;;;;5093887;28;1173;-79
2022/11/05 14:13:50;;;;;;;;;;;;;;;;;;5095576;28;1041;-79
2022/11/05 14:16:17;;;;;;;;;;;;;;;;;;5095500;28;911;-79
2022/11/05 14:18:47;;;;;;;;;;;;;;;;;;5092818;28;1185;-79
2022/11/05 14:21:24;;;;;;;;;;;;;;;;;;5094819;28;1964;-79
2022/11/05 14:23:51;;;;;;;;;;;;;;;;;;5094102;28;1199;-79
2022/11/05 14:26:26;;;;;;;;;;;;;;;;;;5092921;28;1162;-79
2022/11/05 14:28:57;;;;;;;;;;;;;;;;;;5094677;28;1098;-79
2022/11/05 14:31:28;;;;;;;;;;;;;;;;;;5093940;28;925;-78
2022/11/05 14:33:53;;;;;;;;;;;;;;;;;;5092808;28;1391;-79
2022/11/05 14:36:21;;;;;;;;;;;;;;;;;;5092830;28;1309;-79
2022/11/05 14:38:51;;;;;;;;;;;;;;;;;;5094382;28;891;-79
2022/11/05 14:41:17;;;;;;;;;;;;;;;;;;5093675;28;1874;-78
2022/11/05 14:43:57;;;;;;;;;;;;;;;;;;5093599;28;1002;-78
2022/11/05 14:46:23;;;;;;;;;;;;;;;;;;5091777;28;1184;-79
2022/11/05 14:49:11;;;;;;;;;;;;;;;;;;5091862;28;1304;-79
2022/11/05 14:51:43;;;;;;;;;;;;;;;;;;5092882;28;1236;-79
2022/11/05 14:54:20;;;;;;;;;;;;;;;;;;5093826;28;978;-79
2022/11/05 14:56:56;;;;;;;;;;;;;;;;;;5091856;28;1174;-79
2022/11/05 14:59:24;;;;;;;;;;;;;;;;;;5093403;28;872;-78
2022/11/05 15:01:49;;;;;;;;;;;;;;;;;;5092816;28;1951;-74
2022/11/05 15:04:16;;;;;;;;;;;;;;;;;;5091659;28;1225;-74
2022/11/05 15:07:05;;;;;;;;;;;;;;;;;;5092454;28;820;-74
2022/11/05 15:09:33;;;;;;;;;;;;;;;;;;5072510;28;1287;-75
2022/11/05 15:12:02;;;;;;;;;;;;;;;;;;5091124;28;1387;-74
2022/11/05 15:14:31;;;;;;;;;;;;;;;;;;5091654;28;1067;-74
2022/11/05 15:17:01;;;;;;;;;;;;;;;;;;5091886;28;821;-74
2022/11/05 15:19:29;;;;;;;;;;;;;;;;;;5090686;28;1207;-75
2022/11/05 15:21:56;;;;;;;;;;;;;;;;;;5090836;28;1910;-74
2022/11/05 15:24:23;;;;;;;;;;;;;;;;;;5090406;28;1217;-75
2022/11/05 15:26:55;;;;;;;;;;;;;;;;;;5092252;28;746;-75
2022/11/05 15:29:23;;;;;;;;;;;;;;;;;;5092380;28;1222;-75
2022/11/05 15:31:49;;;;;;;;;;;;;;;;;;5095204;28;1193;-76
2022/11/05 15:34:34;;;;;;;;;;;;;;;;;;5078642;28;1530;-76
2022/11/05 15:37:01;;;;;;;;;;;;;;;;;;5094969;28;1233;-76
2022/11/05 15:39:31;;;;;;;;;;;;;;;;;;5097074;28;880;-76
2022/11/05 15:42:01;;;;;;;;;;;;;;;;;;5095576;28;1910;-76
2022/11/05 15:44:37;;;;;;;;;;;;;;;;;;5095368;28;1301;-75
2022/11/05 15:47:14;;;;;;;;;;;;;;;;;;5096242;28;1353;-76
2022/11/05 15:49:44;;;;;;;;;;;;;;;;;;5097961;28;924;-76
2022/11/05 15:52:11;;;;;;;;;;;;;;;;;;5097667;28;845;-77
2022/11/05 15:54:36;;;;;;;;;;;;;;;;;;5096179;28;1367;-76
2022/11/05 15:57:02;;;;;;;;;;;;;;;;;;5082033;28;1106;-76
2022/11/05 15:59:28;;;;;;;;;;;;;;;;;;5097801;28;845;-76
2022/11/05 16:02:01;;;;;;;;;;;;;;;;;;5095992;28;1906;-76
2022/11/05 16:04:35;;;;;;;;;;;;;;;;;;5097254;28;1349;-76
2022/11/05 16:07:06;;;;;;;;;;;;;;;;;;5098624;28;805;-77
2022/11/05 16:09:33;;;;;;;;;;;;;;;;;;5095263;28;1138;-77
2022/11/05 16:12:11;;;;;;;;;;;;;;;;;;5094996;28;1310;-75
2022/11/05 16:14:36;;;;;;;;;;;;;;;;;;5086104;28;1282;-77
2022/11/05 16:17:09;;;;;;;;;;;;;;;;;;5069621;28;1249;-75
2022/11/05 16:19:40;;;;;;;;;;;;;;;;;;5095503;28;1370;-76
2022/11/05 16:22:05;;;;;;;;;;;;;;;;;;5096601;28;1883;-76
2022/11/05 16:24:31;;;;;;;;;;;;;;;;;;5078666;28;1241;-76
2022/11/05 16:26:57;;;;;;;;;;;;;;;;;;5095253;28;1185;-76
2022/11/05 16:29:22;;;;;;;;;;;;;;;;;;5096132;28;1050;-76
2022/11/05 16:31:50;;;;;;;;;;;;;;;;;;5095649;28;908;-74
2022/11/05 16:34:24;;;;;;;;;;;;;;;;;;5095832;28;1014;-73
2022/11/05 16:36:52;;;;;;;;;;;;;;;;;;5094184;28;1205;-74
2022/11/05 16:39:17;;;;;;;;;;;;;;;;;;5094877;28;1354;-73
2022/11/05 16:41:42;;;;;;;;;;;;;;;;;;5094312;28;1914;-79
2022/11/05 16:44:08;;;;;;;;;;;;;;;;;;5093987;28;1114;-79
2022/11/05 16:46:33;;;;;;;;;;;;;;;;;;5093944;28;1186;-78
2022/11/05 16:48:59;;;;;;;;;;;;;;;;;;5094420;28;1353;-79
2022/11/05 16:51:26;;;;;;;;;;;;;;;;;;5095037;28;939;-78
2022/11/05 16:53:51;;;;;;;;;;;;;;;;;;5094472;28;821;-79
2022/11/05 16:56:18;;;;;;;;;;;;;;;;;;5076798;28;1079;-79
2022/11/05 16:58:44;;;;;;;;;;;;;;;;;;5094237;28;1339;-79
2022/11/05 17:01:12;;;;;;;;;;;;;;;;;;5095512;28;1909;-79
2022/11/05 17:03:38;;;;;;;;;;;;;;;;;;5092998;28;1211;-79
2022/11/05 17:06:03;;;;;;;;;;;;;;;;;;5075089;28;1197;-78
2022/11/05 17:08:28;;;;;;;;;;;;;;;;;;5073413;28;1172;-78
2022/11/05 17:10:54;;;;;;;;;;;;;;;;;;5072324;28;927;-78
2022/11/05 17:13:19;;;;;;;;;;;;;;;;;;5073031;28;1219;-78
2022/11/05 17:15:46;;;;;;;;;;;;;;;;;;5073015;28;1186;-79
2022/11/05 17:18:14;;;;;;;;;;;;;;;;;;5073620;28;1296;-79
2022/11/05 17:20:41;;;;;;;;;;;;;;;;;;5074438;28;994;-79
2022/11/05 17:23:10;;;;;;;;;;;;;;;;;;5074849;28;1981;-78
2022/11/05 17:25:36;;;;;;;;;;;;;;;;;;5072927;28;1361;-79
2022/11/05 17:28:02;;;;;;;;;;;;;;;;;;5074719;28;927;-79
2022/11/05 17:30:27;;;;;;;;;;;;;;;;;;5075515;28;914;-79
2022/11/05 17:32:53;;;;;;;;;;;;;;;;;;5057194;28;1226;-79
2022/11/05 17:35:18;;;;;;;;;;;;;;;;;;5056906;28;1412;-79
2022/11/05 17:37:45;;;;;;;;;;;;;;;;;;5072964;28;1159;-77
2022/11/05 17:40:13;;;;;;;;;;;;;;;;;;5073706;28;1236;-79
2022/11/05 17:42:38;;;;;;;;;;;;;;;;;;5073642;28;1901;-79
2022/11/05 17:45:04;;;;;;;;;;;;;;;;;;5057221;28;1304;-79
2022/11/05 17:47:29;;;;;;;;;;;;;;;;;;5073254;28;1352;-79
2022/11/05 17:49:55;;;;;;;;;;;;;;;;;;5072924;28;1011;-79
2022/11/05 17:52:21;;;;;;;;;;;;;;;;;;5073919;28;824;-79
2022/11/05 17:54:46;;;;;;;;;;;;;;;;;;5073253;28;1078;-79
2022/11/05 17:57:12;;;;;;;;;;;;;;;;;;5056423;28;1269;-79
2022/11/05 17:59:37;;;;;;;;;;;;;;;;;;5072822;28;1407;-79
2022/11/05 18:02:03;;;;;;;;;;;;;;;;;;5071923;28;1907;-79
2022/11/05 18:04:28;;;;;;;;;;;;;;;;;;5071773;28;1404;-80
2022/11/05 18:06:53;;;;;;;;;;;;;;;;;;5072171;28;932;-79
2022/11/05 18:09:19;;;;;;;;;;;;;;;;;;5072623;28;1147;-74
2022/11/05 18:11:44;;;;;;;;;;;;;;;;;;5055375;28;1386;-74